sensor_id;sensor_type;location;lat;lon;timestamp;P1;durP1;ratioP1;P2;durP2;ratioP2
67776;SDS011;54576;52.020;5.536;2023-11-19T00:01:01;17.63;;;4.90;;
67776;SDS011;54576;52.020;5.536;2023-11-19T00:03:26;22.88;;;4.65;;
67776;SDS011;54576;52.020;5.536;2023-11-19T00:05:52;25.73;;;4.25;;
67776;SDS011;54576;52.020;5.536;2023-11-19T00:08:17;17.35;;;4.40;;
67776;SDS011;54576;52.020;5.536;2023-11-19T00:10:43;14.52;;;3.85;;
67776;SDS011;54576;52.020;5.536;2023-11-19T00:13:11;20.83;;;3.75;;
67776;SDS011;54576;52.020;5.536;2023-11-19T00:15:37;20.55;;;4.07;;
67776;SDS011;54576;52.020;5.536;2023-11-19T00:18:02;18.60;;;4.43;;
67776;SDS011;54576;52.020;5.536;2023-11-19T00:20:29;22.92;;;4.63;;
67776;SDS011;54576;52.020;5.536;2023-11-19T00:22:55;19.42;;;4.03;;
67776;SDS011;54576;52.020;5.536;2023-11-19T00:25:21;27.00;;;4.65;;
67776;SDS011;54576;52.020;5.536;2023-11-19T00:27:47;28.70;;;5.25;;
67776;SDS011;54576;52.020;5.536;2023-11-19T00:30:13;17.52;;;3.90;;
67776;SDS011;54576;52.020;5.536;2023-11-19T00:32:40;23.67;;;4.22;;
67776;SDS011;54576;52.020;5.536;2023-11-19T00:35:06;22.95;;;4.55;;
67776;SDS011;54576;52.020;5.536;2023-11-19T00:37:32;22.15;;;4.43;;
67776;SDS011;54576;52.020;5.536;2023-11-19T00:39:58;30.90;;;5.55;;
67776;SDS011;54576;52.020;5.536;2023-11-19T00:42:23;33.08;;;5.35;;
67776;SDS011;54576;52.020;5.536;2023-11-19T00:44:52;20.35;;;4.85;;
67776;SDS011;54576;52.020;5.536;2023-11-19T00:47:18;42.22;;;5.38;;
67776;SDS011;54576;52.020;5.536;2023-11-19T00:49:47;27.60;;;4.53;;
67776;SDS011;54576;52.020;5.536;2023-11-19T00:52:16;32.28;;;4.82;;
67776;SDS011;54576;52.020;5.536;2023-11-19T00:54:42;34.97;;;5.00;;
67776;SDS011;54576;52.020;5.536;2023-11-19T00:57:08;23.88;;;4.45;;
67776;SDS011;54576;52.020;5.536;2023-11-19T00:59:33;29.30;;;4.72;;
67776;SDS011;54576;52.020;5.536;2023-11-19T01:01:59;32.28;;;5.15;;
67776;SDS011;54576;52.020;5.536;2023-11-19T01:04:29;24.65;;;3.83;;
67776;SDS011;54576;52.020;5.536;2023-11-19T01:06:59;32.38;;;5.18;;
67776;SDS011;54576;52.020;5.536;2023-11-19T01:09:24;36.80;;;4.50;;
67776;SDS011;54576;52.020;5.536;2023-11-19T01:11:51;42.83;;;5.25;;
67776;SDS011;54576;52.020;5.536;2023-11-19T01:14:17;28.65;;;4.55;;
67776;SDS011;54576;52.020;5.536;2023-11-19T01:16:42;32.35;;;4.55;;
67776;SDS011;54576;52.020;5.536;2023-11-19T01:19:09;51.78;;;5.65;;
67776;SDS011;54576;52.020;5.536;2023-11-19T01:21:37;31.77;;;4.50;;
67776;SDS011;54576;52.020;5.536;2023-11-19T01:24:03;31.23;;;4.45;;
67776;SDS011;54576;52.020;5.536;2023-11-19T01:26:31;35.25;;;5.32;;
67776;SDS011;54576;52.020;5.536;2023-11-19T01:28:56;31.27;;;5.30;;
67776;SDS011;54576;52.020;5.536;2023-11-19T01:31:22;28.17;;;4.32;;
67776;SDS011;54576;52.020;5.536;2023-11-19T01:33:47;35.60;;;4.60;;
67776;SDS011;54576;52.020;5.536;2023-11-19T01:36:13;32.70;;;5.28;;
67776;SDS011;54576;52.020;5.536;2023-11-19T01:38:39;41.90;;;5.68;;
67776;SDS011;54576;52.020;5.536;2023-11-19T01:41:05;40.90;;;5.30;;
67776;SDS011;54576;52.020;5.536;2023-11-19T01:43:37;36.65;;;4.55;;
67776;SDS011;54576;52.020;5.536;2023-11-19T01:46:06;32.92;;;4.97;;
67776;SDS011;54576;52.020;5.536;2023-11-19T01:48:34;39.77;;;5.90;;
67776;SDS011;54576;52.020;5.536;2023-11-19T01:51:01;41.20;;;5.47;;
67776;SDS011;54576;52.020;5.536;2023-11-19T01:53:29;41.72;;;4.93;;
67776;SDS011;54576;52.020;5.536;2023-11-19T01:55:55;38.00;;;5.07;;
67776;SDS011;54576;52.020;5.536;2023-11-19T01:58:21;54.78;;;6.30;;
67776;SDS011;54576;52.020;5.536;2023-11-19T02:00:48;34.28;;;5.07;;
67776;SDS011;54576;52.020;5.536;2023-11-19T02:03:14;38.63;;;4.80;;
67776;SDS011;54576;52.020;5.536;2023-11-19T02:05:40;35.22;;;4.68;;
67776;SDS011;54576;52.020;5.536;2023-11-19T02:08:06;34.17;;;4.38;;
67776;SDS011;54576;52.020;5.536;2023-11-19T02:10:35;33.83;;;4.75;;
67776;SDS011;54576;52.020;5.536;2023-11-19T02:13:01;46.72;;;4.63;;
67776;SDS011;54576;52.020;5.536;2023-11-19T02:15:27;44.17;;;5.25;;
67776;SDS011;54576;52.020;5.536;2023-11-19T02:17:53;40.60;;;5.30;;
67776;SDS011;54576;52.020;5.536;2023-11-19T02:20:18;37.00;;;5.07;;
67776;SDS011;54576;52.020;5.536;2023-11-19T02:22:48;49.63;;;6.22;;
67776;SDS011;54576;52.020;5.536;2023-11-19T02:25:25;52.63;;;5.85;;
67776;SDS011;54576;52.020;5.536;2023-11-19T02:28:01;43.75;;;5.43;;
67776;SDS011;54576;52.020;5.536;2023-11-19T02:30:27;38.63;;;5.47;;
67776;SDS011;54576;52.020;5.536;2023-11-19T02:32:53;43.33;;;6.78;;
67776;SDS011;54576;52.020;5.536;2023-11-19T02:35:27;48.97;;;9.55;;
67776;SDS011;54576;52.020;5.536;2023-11-19T02:37:55;54.67;;;7.53;;
67776;SDS011;54576;52.020;5.536;2023-11-19T02:40:21;49.75;;;5.95;;
67776;SDS011;54576;52.020;5.536;2023-11-19T02:42:49;56.88;;;6.65;;
67776;SDS011;54576;52.020;5.536;2023-11-19T02:45:14;54.78;;;6.18;;
67776;SDS011;54576;52.020;5.536;2023-11-19T02:47:40;52.42;;;6.60;;
67776;SDS011;54576;52.020;5.536;2023-11-19T02:50:10;54.63;;;6.28;;
67776;SDS011;54576;52.020;5.536;2023-11-19T02:52:42;42.85;;;5.93;;
67776;SDS011;54576;52.020;5.536;2023-11-19T02:55:12;53.50;;;6.75;;
67776;SDS011;54576;52.020;5.536;2023-11-19T02:57:38;62.70;;;8.02;;
67776;SDS011;54576;52.020;5.536;2023-11-19T03:00:20;60.70;;;7.68;;
67776;SDS011;54576;52.020;5.536;2023-11-19T03:02:50;67.40;;;8.43;;
67776;SDS011;54576;52.020;5.536;2023-11-19T03:05:24;53.05;;;8.15;;
67776;SDS011;54576;52.020;5.536;2023-11-19T03:07:51;62.05;;;7.97;;
67776;SDS011;54576;52.020;5.536;2023-11-19T03:10:17;75.47;;;8.20;;
67776;SDS011;54576;52.020;5.536;2023-11-19T03:12:44;66.03;;;8.30;;
67776;SDS011;54576;52.020;5.536;2023-11-19T03:15:10;59.33;;;7.82;;
67776;SDS011;54576;52.020;5.536;2023-11-19T03:17:39;56.45;;;7.50;;
67776;SDS011;54576;52.020;5.536;2023-11-19T03:20:06;60.75;;;7.57;;
67776;SDS011;54576;52.020;5.536;2023-11-19T03:22:34;50.35;;;7.25;;
67776;SDS011;54576;52.020;5.536;2023-11-19T03:25:02;65.65;;;7.63;;
67776;SDS011;54576;52.020;5.536;2023-11-19T03:27:27;63.38;;;7.10;;
67776;SDS011;54576;52.020;5.536;2023-11-19T03:29:53;56.67;;;7.70;;
67776;SDS011;54576;52.020;5.536;2023-11-19T03:32:18;62.35;;;8.05;;
67776;SDS011;54576;52.020;5.536;2023-11-19T03:34:44;64.93;;;7.90;;
67776;SDS011;54576;52.020;5.536;2023-11-19T03:37:17;61.38;;;7.82;;
67776;SDS011;54576;52.020;5.536;2023-11-19T03:39:42;59.17;;;7.75;;
67776;SDS011;54576;52.020;5.536;2023-11-19T03:42:08;73.88;;;9.23;;
67776;SDS011;54576;52.020;5.536;2023-11-19T03:44:33;55.72;;;7.85;;
67776;SDS011;54576;52.020;5.536;2023-11-19T03:46:59;61.75;;;8.02;;
67776;SDS011;54576;52.020;5.536;2023-11-19T03:49:24;57.13;;;7.38;;
67776;SDS011;54576;52.020;5.536;2023-11-19T03:51:50;59.63;;;8.05;;
67776;SDS011;54576;52.020;5.536;2023-11-19T03:54:16;66.90;;;7.72;;
67776;SDS011;54576;52.020;5.536;2023-11-19T03:56:41;64.13;;;7.53;;
67776;SDS011;54576;52.020;5.536;2023-11-19T03:59:07;53.28;;;8.00;;
67776;SDS011;54576;52.020;5.536;2023-11-19T04:01:35;63.13;;;7.88;;
67776;SDS011;54576;52.020;5.536;2023-11-19T04:04:02;58.92;;;8.05;;
67776;SDS011;54576;52.020;5.536;2023-11-19T04:06:28;58.13;;;6.88;;
67776;SDS011;54576;52.020;5.536;2023-11-19T04:08:53;64.47;;;8.98;;
67776;SDS011;54576;52.020;5.536;2023-11-19T04:11:19;61.67;;;7.38;;
67776;SDS011;54576;52.020;5.536;2023-11-19T04:13:44;63.95;;;7.60;;
67776;SDS011;54576;52.020;5.536;2023-11-19T04:16:10;63.53;;;8.35;;
67776;SDS011;54576;52.020;5.536;2023-11-19T04:18:35;74.50;;;8.65;;
67776;SDS011;54576;52.020;5.536;2023-11-19T04:21:01;57.88;;;7.13;;
67776;SDS011;54576;52.020;5.536;2023-11-19T04:23:26;73.28;;;8.88;;
67776;SDS011;54576;52.020;5.536;2023-11-19T04:25:52;57.90;;;7.50;;
67776;SDS011;54576;52.020;5.536;2023-11-19T04:28:18;71.75;;;7.32;;
67776;SDS011;54576;52.020;5.536;2023-11-19T04:30:43;65.30;;;8.70;;
67776;SDS011;54576;52.020;5.536;2023-11-19T04:33:09;73.32;;;8.35;;
67776;SDS011;54576;52.020;5.536;2023-11-19T04:35:35;70.03;;;8.43;;
67776;SDS011;54576;52.020;5.536;2023-11-19T04:38:00;59.20;;;9.32;;
67776;SDS011;54576;52.020;5.536;2023-11-19T04:40:26;60.90;;;7.80;;
67776;SDS011;54576;52.020;5.536;2023-11-19T04:42:51;64.00;;;7.70;;
67776;SDS011;54576;52.020;5.536;2023-11-19T04:45:17;56.88;;;7.72;;
67776;SDS011;54576;52.020;5.536;2023-11-19T04:47:43;63.05;;;8.13;;
67776;SDS011;54576;52.020;5.536;2023-11-19T04:50:09;65.53;;;8.23;;
67776;SDS011;54576;52.020;5.536;2023-11-19T04:52:37;54.92;;;7.72;;
67776;SDS011;54576;52.020;5.536;2023-11-19T04:55:05;56.88;;;7.50;;
67776;SDS011;54576;52.020;5.536;2023-11-19T04:57:31;54.85;;;8.00;;
67776;SDS011;54576;52.020;5.536;2023-11-19T04:59:57;72.05;;;9.15;;
67776;SDS011;54576;52.020;5.536;2023-11-19T05:02:23;68.15;;;9.27;;
67776;SDS011;54576;52.020;5.536;2023-11-19T05:04:49;60.10;;;7.75;;
67776;SDS011;54576;52.020;5.536;2023-11-19T05:07:14;60.53;;;7.55;;
67776;SDS011;54576;52.020;5.536;2023-11-19T05:09:40;69.90;;;7.80;;
67776;SDS011;54576;52.020;5.536;2023-11-19T05:12:06;66.88;;;8.70;;
67776;SDS011;54576;52.020;5.536;2023-11-19T05:14:35;64.00;;;8.85;;
67776;SDS011;54576;52.020;5.536;2023-11-19T05:17:00;64.20;;;8.95;;
67776;SDS011;54576;52.020;5.536;2023-11-19T05:19:26;65.35;;;7.60;;
67776;SDS011;54576;52.020;5.536;2023-11-19T05:21:51;79.18;;;7.47;;
67776;SDS011;54576;52.020;5.536;2023-11-19T05:24:17;64.80;;;8.60;;
67776;SDS011;54576;52.020;5.536;2023-11-19T05:26:43;71.40;;;8.90;;
67776;SDS011;54576;52.020;5.536;2023-11-19T05:29:08;77.35;;;7.80;;
67776;SDS011;54576;52.020;5.536;2023-11-19T05:31:34;70.03;;;7.88;;
67776;SDS011;54576;52.020;5.536;2023-11-19T05:33:59;61.17;;;7.65;;
67776;SDS011;54576;52.020;5.536;2023-11-19T05:36:25;66.55;;;8.10;;
67776;SDS011;54576;52.020;5.536;2023-11-19T05:38:50;51.20;;;7.60;;
67776;SDS011;54576;52.020;5.536;2023-11-19T05:41:16;63.40;;;8.40;;
67776;SDS011;54576;52.020;5.536;2023-11-19T05:43:42;79.68;;;9.35;;
67776;SDS011;54576;52.020;5.536;2023-11-19T05:46:07;73.60;;;10.07;;
67776;SDS011;54576;52.020;5.536;2023-11-19T05:48:33;66.18;;;8.18;;
67776;SDS011;54576;52.020;5.536;2023-11-19T05:50:59;68.90;;;8.55;;
67776;SDS011;54576;52.020;5.536;2023-11-19T05:53:25;57.22;;;7.50;;
67776;SDS011;54576;52.020;5.536;2023-11-19T05:55:50;59.25;;;6.80;;
67776;SDS011;54576;52.020;5.536;2023-11-19T05:58:29;64.35;;;8.40;;
67776;SDS011;54576;52.020;5.536;2023-11-19T06:00:55;64.97;;;7.35;;
67776;SDS011;54576;52.020;5.536;2023-11-19T06:03:21;68.97;;;7.80;;
67776;SDS011;54576;52.020;5.536;2023-11-19T06:05:47;68.93;;;8.63;;
67776;SDS011;54576;52.020;5.536;2023-11-19T06:08:13;64.05;;;8.68;;
67776;SDS011;54576;52.020;5.536;2023-11-19T06:10:40;66.20;;;9.20;;
67776;SDS011;54576;52.020;5.536;2023-11-19T06:13:06;69.90;;;9.30;;
67776;SDS011;54576;52.020;5.536;2023-11-19T06:15:32;72.30;;;8.95;;
67776;SDS011;54576;52.020;5.536;2023-11-19T06:17:58;67.53;;;8.30;;
67776;SDS011;54576;52.020;5.536;2023-11-19T06:20:28;65.15;;;8.15;;
67776;SDS011;54576;52.020;5.536;2023-11-19T06:22:57;65.70;;;7.82;;
67776;SDS011;54576;52.020;5.536;2023-11-19T06:25:23;86.85;;;19.52;;
67776;SDS011;54576;52.020;5.536;2023-11-19T06:27:49;77.47;;;11.02;;
67776;SDS011;54576;52.020;5.536;2023-11-19T06:30:18;85.72;;;10.98;;
67776;SDS011;54576;52.020;5.536;2023-11-19T06:32:44;76.55;;;11.13;;
67776;SDS011;54576;52.020;5.536;2023-11-19T06:35:09;109.78;;;34.38;;
67776;SDS011;54576;52.020;5.536;2023-11-19T06:37:36;64.43;;;13.85;;
67776;SDS011;54576;52.020;5.536;2023-11-19T06:40:04;80.03;;;14.13;;
67776;SDS011;54576;52.020;5.536;2023-11-19T06:42:30;68.50;;;13.90;;
67776;SDS011;54576;52.020;5.536;2023-11-19T06:44:56;70.57;;;10.63;;
67776;SDS011;54576;52.020;5.536;2023-11-19T06:47:22;61.22;;;8.30;;
67776;SDS011;54576;52.020;5.536;2023-11-19T06:49:53;84.05;;;10.93;;
67776;SDS011;54576;52.020;5.536;2023-11-19T06:52:19;59.97;;;7.78;;
67776;SDS011;54576;52.020;5.536;2023-11-19T06:54:44;72.78;;;8.73;;
67776;SDS011;54576;52.020;5.536;2023-11-19T06:57:10;60.40;;;8.02;;
67776;SDS011;54576;52.020;5.536;2023-11-19T06:59:36;72.80;;;9.32;;
67776;SDS011;54576;52.020;5.536;2023-11-19T07:02:02;70.47;;;9.63;;
67776;SDS011;54576;52.020;5.536;2023-11-19T07:04:28;75.78;;;15.75;;
67776;SDS011;54576;52.020;5.536;2023-11-19T07:06:53;75.57;;;19.48;;
67776;SDS011;54576;52.020;5.536;2023-11-19T07:09:19;69.78;;;12.63;;
67776;SDS011;54576;52.020;5.536;2023-11-19T07:11:46;72.75;;;11.23;;
67776;SDS011;54576;52.020;5.536;2023-11-19T07:14:11;65.53;;;10.13;;
67776;SDS011;54576;52.020;5.536;2023-11-19T07:16:37;67.85;;;8.40;;
67776;SDS011;54576;52.020;5.536;2023-11-19T07:19:03;62.38;;;7.32;;
67776;SDS011;54576;52.020;5.536;2023-11-19T07:21:30;80.25;;;8.70;;
67776;SDS011;54576;52.020;5.536;2023-11-19T07:23:57;72.75;;;9.85;;
67776;SDS011;54576;52.020;5.536;2023-11-19T07:26:23;84.22;;;9.10;;
67776;SDS011;54576;52.020;5.536;2023-11-19T07:28:49;59.10;;;8.13;;
67776;SDS011;54576;52.020;5.536;2023-11-19T07:31:16;56.75;;;8.23;;
67776;SDS011;54576;52.020;5.536;2023-11-19T07:33:44;77.38;;;9.18;;
67776;SDS011;54576;52.020;5.536;2023-11-19T07:36:13;59.83;;;7.22;;
67776;SDS011;54576;52.020;5.536;2023-11-19T07:38:39;64.32;;;8.45;;
67776;SDS011;54576;52.020;5.536;2023-11-19T07:41:05;62.35;;;7.43;;
67776;SDS011;54576;52.020;5.536;2023-11-19T07:43:31;68.38;;;7.97;;
67776;SDS011;54576;52.020;5.536;2023-11-19T07:45:57;64.25;;;7.28;;
67776;SDS011;54576;52.020;5.536;2023-11-19T07:50:52;55.85;;;7.63;;
67776;SDS011;54576;52.020;5.536;2023-11-19T07:53:18;70.60;;;9.05;;
67776;SDS011;54576;52.020;5.536;2023-11-19T07:55:44;59.15;;;8.27;;
67776;SDS011;54576;52.020;5.536;2023-11-19T07:58:10;63.85;;;9.38;;
67776;SDS011;54576;52.020;5.536;2023-11-19T08:00:36;72.68;;;8.73;;
67776;SDS011;54576;52.020;5.536;2023-11-19T08:03:02;67.72;;;9.25;;
67776;SDS011;54576;52.020;5.536;2023-11-19T08:05:29;69.00;;;8.10;;
67776;SDS011;54576;52.020;5.536;2023-11-19T08:07:54;67.90;;;8.10;;
67776;SDS011;54576;52.020;5.536;2023-11-19T08:10:20;50.33;;;7.78;;
67776;SDS011;54576;52.020;5.536;2023-11-19T08:12:46;62.65;;;7.60;;
67776;SDS011;54576;52.020;5.536;2023-11-19T08:15:12;60.97;;;8.85;;
67776;SDS011;54576;52.020;5.536;2023-11-19T08:17:37;52.83;;;7.28;;
67776;SDS011;54576;52.020;5.536;2023-11-19T08:20:03;60.05;;;7.78;;
67776;SDS011;54576;52.020;5.536;2023-11-19T08:22:30;53.58;;;7.28;;
67776;SDS011;54576;52.020;5.536;2023-11-19T08:24:55;50.55;;;7.80;;
67776;SDS011;54576;52.020;5.536;2023-11-19T08:27:21;61.00;;;7.75;;
67776;SDS011;54576;52.020;5.536;2023-11-19T08:29:53;61.72;;;7.70;;
67776;SDS011;54576;52.020;5.536;2023-11-19T08:32:20;56.70;;;7.57;;
67776;SDS011;54576;52.020;5.536;2023-11-19T08:34:46;54.80;;;7.88;;
67776;SDS011;54576;52.020;5.536;2023-11-19T08:37:11;53.92;;;8.10;;
67776;SDS011;54576;52.020;5.536;2023-11-19T08:39:38;78.28;;;9.15;;
67776;SDS011;54576;52.020;5.536;2023-11-19T08:42:03;55.00;;;7.45;;
67776;SDS011;54576;52.020;5.536;2023-11-19T08:44:29;52.92;;;7.35;;
67776;SDS011;54576;52.020;5.536;2023-11-19T08:46:55;51.95;;;7.68;;
67776;SDS011;54576;52.020;5.536;2023-11-19T08:49:20;59.40;;;7.57;;
67776;SDS011;54576;52.020;5.536;2023-11-19T08:51:49;58.17;;;7.85;;
67776;SDS011;54576;52.020;5.536;2023-11-19T08:54:14;52.40;;;7.45;;
67776;SDS011;54576;52.020;5.536;2023-11-19T08:56:40;58.78;;;7.35;;
67776;SDS011;54576;52.020;5.536;2023-11-19T08:59:06;54.67;;;6.75;;
67776;SDS011;54576;52.020;5.536;2023-11-19T09:01:31;54.55;;;6.63;;
67776;SDS011;54576;52.020;5.536;2023-11-19T09:03:57;60.05;;;7.70;;
67776;SDS011;54576;52.020;5.536;2023-11-19T09:06:22;49.92;;;6.32;;
67776;SDS011;54576;52.020;5.536;2023-11-19T09:08:48;58.25;;;7.80;;
67776;SDS011;54576;52.020;5.536;2023-11-19T09:11:14;48.92;;;7.03;;
67776;SDS011;54576;52.020;5.536;2023-11-19T09:13:41;54.55;;;7.35;;
67776;SDS011;54576;52.020;5.536;2023-11-19T09:16:06;46.42;;;7.15;;
67776;SDS011;54576;52.020;5.536;2023-11-19T09:18:32;60.00;;;7.97;;
67776;SDS011;54576;52.020;5.536;2023-11-19T09:20:58;50.97;;;7.30;;
67776;SDS011;54576;52.020;5.536;2023-11-19T09:23:23;49.25;;;7.22;;
67776;SDS011;54576;52.020;5.536;2023-11-19T09:25:54;52.17;;;6.63;;
67776;SDS011;54576;52.020;5.536;2023-11-19T09:28:20;53.67;;;8.15;;
67776;SDS011;54576;52.020;5.536;2023-11-19T09:30:45;46.75;;;6.40;;
67776;SDS011;54576;52.020;5.536;2023-11-19T09:33:11;58.15;;;9.63;;
67776;SDS011;54576;52.020;5.536;2023-11-19T09:35:39;56.58;;;8.25;;
67776;SDS011;54576;52.020;5.536;2023-11-19T09:38:05;52.47;;;8.05;;
67776;SDS011;54576;52.020;5.536;2023-11-19T09:40:31;50.03;;;7.28;;
67776;SDS011;54576;52.020;5.536;2023-11-19T09:42:57;54.80;;;8.40;;
67776;SDS011;54576;52.020;5.536;2023-11-19T09:45:22;61.33;;;7.63;;
67776;SDS011;54576;52.020;5.536;2023-11-19T09:47:53;57.80;;;8.55;;
67776;SDS011;54576;52.020;5.536;2023-11-19T09:50:22;60.47;;;8.57;;
67776;SDS011;54576;52.020;5.536;2023-11-19T09:52:48;63.22;;;7.93;;
67776;SDS011;54576;52.020;5.536;2023-11-19T09:55:14;53.30;;;6.90;;
67776;SDS011;54576;52.020;5.536;2023-11-19T09:57:40;63.63;;;8.32;;
67776;SDS011;54576;52.020;5.536;2023-11-19T10:00:07;75.55;;;18.45;;
67776;SDS011;54576;52.020;5.536;2023-11-19T10:02:35;55.60;;;10.75;;
67776;SDS011;54576;52.020;5.536;2023-11-19T10:05:23;62.63;;;10.98;;
67776;SDS011;54576;52.020;5.536;2023-11-19T10:07:49;94.28;;;32.78;;
67776;SDS011;54576;52.020;5.536;2023-11-19T10:10:15;74.15;;;18.02;;
67776;SDS011;54576;52.020;5.536;2023-11-19T10:12:44;79.18;;;18.95;;
67776;SDS011;54576;52.020;5.536;2023-11-19T10:15:22;68.97;;;15.93;;
67776;SDS011;54576;52.020;5.536;2023-11-19T10:17:49;64.53;;;10.77;;
67776;SDS011;54576;52.020;5.536;2023-11-19T10:20:16;54.05;;;7.43;;
67776;SDS011;54576;52.020;5.536;2023-11-19T10:22:42;54.58;;;8.85;;
67776;SDS011;54576;52.020;5.536;2023-11-19T10:25:26;50.53;;;7.65;;
67776;SDS011;54576;52.020;5.536;2023-11-19T10:27:53;44.45;;;6.28;;
67776;SDS011;54576;52.020;5.536;2023-11-19T10:30:20;62.00;;;8.57;;
67776;SDS011;54576;52.020;5.536;2023-11-19T10:33:02;46.00;;;6.43;;
67776;SDS011;54576;52.020;5.536;2023-11-19T10:35:28;46.40;;;6.65;;
67776;SDS011;54576;52.020;5.536;2023-11-19T10:37:54;48.83;;;6.97;;
67776;SDS011;54576;52.020;5.536;2023-11-19T10:40:19;51.80;;;8.95;;
67776;SDS011;54576;52.020;5.536;2023-11-19T10:42:45;53.53;;;8.00;;
67776;SDS011;54576;52.020;5.536;2023-11-19T10:45:23;62.10;;;7.32;;
67776;SDS011;54576;52.020;5.536;2023-11-19T10:47:50;42.63;;;5.83;;
67776;SDS011;54576;52.020;5.536;2023-11-19T10:50:16;50.22;;;7.07;;
67776;SDS011;54576;52.020;5.536;2023-11-19T10:52:43;58.00;;;9.00;;
67776;SDS011;54576;52.020;5.536;2023-11-19T10:55:11;44.03;;;7.10;;
67776;SDS011;54576;52.020;5.536;2023-11-19T10:57:40;43.95;;;6.95;;
67776;SDS011;54576;52.020;5.536;2023-11-19T11:00:11;50.70;;;6.97;;
67776;SDS011;54576;52.020;5.536;2023-11-19T11:02:42;57.28;;;7.18;;
67776;SDS011;54576;52.020;5.536;2023-11-19T11:05:11;57.15;;;8.30;;
67776;SDS011;54576;52.020;5.536;2023-11-19T11:07:38;49.05;;;7.97;;
67776;SDS011;54576;52.020;5.536;2023-11-19T11:10:08;53.15;;;6.88;;
67776;SDS011;54576;52.020;5.536;2023-11-19T11:12:36;54.95;;;7.70;;
67776;SDS011;54576;52.020;5.536;2023-11-19T11:15:04;62.55;;;8.68;;
67776;SDS011;54576;52.020;5.536;2023-11-19T11:17:31;47.10;;;6.90;;
67776;SDS011;54576;52.020;5.536;2023-11-19T11:19:57;49.47;;;7.38;;
67776;SDS011;54576;52.020;5.536;2023-11-19T11:22:23;50.15;;;7.50;;
67776;SDS011;54576;52.020;5.536;2023-11-19T11:25:04;50.08;;;7.38;;
67776;SDS011;54576;52.020;5.536;2023-11-19T11:27:54;44.25;;;6.93;;
67776;SDS011;54576;52.020;5.536;2023-11-19T11:30:56;43.30;;;7.28;;
67776;SDS011;54576;52.020;5.536;2023-11-19T11:33:37;46.70;;;7.88;;
67776;SDS011;54576;52.020;5.536;2023-11-19T11:36:22;52.75;;;6.80;;
67776;SDS011;54576;52.020;5.536;2023-11-19T11:38:48;49.72;;;7.45;;
67776;SDS011;54576;52.020;5.536;2023-11-19T11:41:17;55.10;;;8.02;;
67776;SDS011;54576;52.020;5.536;2023-11-19T11:49:00;50.38;;;7.63;;
67776;SDS011;54576;52.020;5.536;2023-11-19T11:52:09;46.28;;;6.97;;
67776;SDS011;54576;52.020;5.536;2023-11-19T11:54:28;47.03;;;7.40;;
67776;SDS011;54576;52.020;5.536;2023-11-19T11:59:31;51.13;;;7.72;;
67776;SDS011;54576;52.020;5.536;2023-11-19T12:02:07;41.10;;;7.00;;
67776;SDS011;54576;52.020;5.536;2023-11-19T12:04:34;44.53;;;5.57;;
67776;SDS011;54576;52.020;5.536;2023-11-19T12:09:30;28.65;;;4.55;;
67776;SDS011;54576;52.020;5.536;2023-11-19T12:20:02;43.22;;;6.32;;
67776;SDS011;54576;52.020;5.536;2023-11-19T12:22:31;38.58;;;5.85;;
67776;SDS011;54576;52.020;5.536;2023-11-19T12:24:57;39.22;;;5.53;;
67776;SDS011;54576;52.020;5.536;2023-11-19T12:27:23;41.20;;;7.05;;
67776;SDS011;54576;52.020;5.536;2023-11-19T12:29:51;47.60;;;6.18;;
67776;SDS011;54576;52.020;5.536;2023-11-19T12:32:17;35.22;;;5.53;;
67776;SDS011;54576;52.020;5.536;2023-11-19T12:34:42;38.55;;;5.80;;
67776;SDS011;54576;52.020;5.536;2023-11-19T12:37:09;35.17;;;5.07;;
67776;SDS011;54576;52.020;5.536;2023-11-19T12:39:35;38.20;;;5.00;;
67776;SDS011;54576;52.020;5.536;2023-11-19T12:42:01;35.58;;;5.53;;
67776;SDS011;54576;52.020;5.536;2023-11-19T12:44:27;46.72;;;7.03;;
67776;SDS011;54576;52.020;5.536;2023-11-19T12:47:05;56.88;;;6.70;;
67776;SDS011;54576;52.020;5.536;2023-11-19T12:49:35;48.10;;;6.32;;
67776;SDS011;54576;52.020;5.536;2023-11-19T12:52:00;37.05;;;5.80;;
67776;SDS011;54576;52.020;5.536;2023-11-19T12:54:33;37.92;;;5.43;;
67776;SDS011;54576;52.020;5.536;2023-11-19T12:57:02;40.83;;;6.07;;
67776;SDS011;54576;52.020;5.536;2023-11-19T12:59:29;47.17;;;5.97;;
67776;SDS011;54576;52.020;5.536;2023-11-19T13:01:59;43.28;;;5.45;;
67776;SDS011;54576;52.020;5.536;2023-11-19T13:04:28;42.42;;;6.18;;
67776;SDS011;54576;52.020;5.536;2023-11-19T13:06:56;37.17;;;5.88;;
67776;SDS011;54576;52.020;5.536;2023-11-19T13:09:22;33.63;;;5.55;;
67776;SDS011;54576;52.020;5.536;2023-11-19T13:11:49;34.95;;;7.15;;
67776;SDS011;54576;52.020;5.536;2023-11-19T13:14:15;32.72;;;5.18;;
67776;SDS011;54576;52.020;5.536;2023-11-19T13:16:41;48.72;;;6.90;;
67776;SDS011;54576;52.020;5.536;2023-11-19T13:19:07;42.65;;;6.15;;
67776;SDS011;54576;52.020;5.536;2023-11-19T13:21:34;45.25;;;6.68;;
67776;SDS011;54576;52.020;5.536;2023-11-19T13:23:59;48.20;;;6.82;;
67776;SDS011;54576;52.020;5.536;2023-11-19T13:26:25;53.03;;;7.55;;
67776;SDS011;54576;52.020;5.536;2023-11-19T13:28:51;42.25;;;6.57;;
67776;SDS011;54576;52.020;5.536;2023-11-19T13:31:16;47.25;;;6.60;;
67776;SDS011;54576;52.020;5.536;2023-11-19T13:33:42;41.03;;;5.80;;
67776;SDS011;54576;52.020;5.536;2023-11-19T13:36:08;41.97;;;5.60;;
67776;SDS011;54576;52.020;5.536;2023-11-19T13:38:34;52.60;;;7.03;;
67776;SDS011;54576;52.020;5.536;2023-11-19T13:41:01;52.75;;;6.68;;
67776;SDS011;54576;52.020;5.536;2023-11-19T13:43:27;42.40;;;6.43;;
67776;SDS011;54576;52.020;5.536;2023-11-19T13:45:55;41.47;;;5.60;;
67776;SDS011;54576;52.020;5.536;2023-11-19T13:48:21;38.08;;;6.75;;
67776;SDS011;54576;52.020;5.536;2023-11-19T13:50:47;44.45;;;6.50;;
67776;SDS011;54576;52.020;5.536;2023-11-19T13:53:12;42.05;;;5.75;;
67776;SDS011;54576;52.020;5.536;2023-11-19T13:55:38;34.05;;;5.47;;
67776;SDS011;54576;52.020;5.536;2023-11-19T13:58:03;33.20;;;5.63;;
67776;SDS011;54576;52.020;5.536;2023-11-19T14:00:29;29.50;;;4.75;;
67776;SDS011;54576;52.020;5.536;2023-11-19T14:02:55;39.38;;;5.30;;
67776;SDS011;54576;52.020;5.536;2023-11-19T14:05:20;37.88;;;5.00;;
67776;SDS011;54576;52.020;5.536;2023-11-19T14:07:46;41.88;;;5.43;;
67776;SDS011;54576;52.020;5.536;2023-11-19T14:10:16;40.92;;;5.97;;
67776;SDS011;54576;52.020;5.536;2023-11-19T14:12:42;38.22;;;5.95;;
67776;SDS011;54576;52.020;5.536;2023-11-19T14:15:08;31.38;;;5.47;;
67776;SDS011;54576;52.020;5.536;2023-11-19T14:17:37;37.35;;;5.30;;
67776;SDS011;54576;52.020;5.536;2023-11-19T14:20:02;34.63;;;5.45;;
67776;SDS011;54576;52.020;5.536;2023-11-19T14:22:37;38.03;;;5.60;;
67776;SDS011;54576;52.020;5.536;2023-11-19T14:25:14;43.28;;;5.28;;
67776;SDS011;54576;52.020;5.536;2023-11-19T14:27:40;45.05;;;6.90;;
67776;SDS011;54576;52.020;5.536;2023-11-19T14:30:08;33.25;;;4.70;;
67776;SDS011;54576;52.020;5.536;2023-11-19T14:35:02;40.83;;;5.53;;
67776;SDS011;54576;52.020;5.536;2023-11-19T14:37:28;37.30;;;5.90;;
67776;SDS011;54576;52.020;5.536;2023-11-19T14:39:55;37.17;;;5.75;;
67776;SDS011;54576;52.020;5.536;2023-11-19T14:42:22;35.70;;;6.57;;
67776;SDS011;54576;52.020;5.536;2023-11-19T14:44:51;34.08;;;5.60;;
67776;SDS011;54576;52.020;5.536;2023-11-19T14:47:20;34.30;;;5.03;;
67776;SDS011;54576;52.020;5.536;2023-11-19T14:49:47;31.42;;;5.20;;
67776;SDS011;54576;52.020;5.536;2023-11-19T14:52:13;51.47;;;6.20;;
67776;SDS011;54576;52.020;5.536;2023-11-19T14:54:38;34.28;;;5.78;;
67776;SDS011;54576;52.020;5.536;2023-11-19T14:57:04;48.15;;;5.60;;